Time;durP1;ratioP1;P1;durP2;ratioP2;P2;SDS_P1;SDS_P2;PMS_P1;PMS_P2;Temp;Humidity;BMP_temperature;BMP_pressure;BME280_temperature;BME280_humidity;BME280_pressure;Samples;Min_cycle;Max_cycle;Signal;HPM_P1;HPM_P2
2022/06/26 00:00:13;;;;;;;3.38;3.28;;;;;;;;;;5061261;28;20208;-70
2022/06/26 00:03:00;;;;;;;3.03;2.92;;;;;;;;;;5063499;28;20227;-69
2022/06/26 00:05:49;;;;;;;3.03;2.90;;;;;;;;;;5059957;28;20200;-69
2022/06/26 00:08:36;;;;;;;2.92;2.83;;;;;;;;;;5063905;28;20243;-71
2022/06/26 00:11:23;;;;;;;3.00;2.90;;;;;;;;;;5058554;28;20703;-70
2022/06/26 00:14:10;;;;;;;2.80;2.70;;;;;;;;;;5061571;28;20297;-70
2022/06/26 00:16:58;;;;;;;3.28;3.08;;;;;;;;;;5057912;28;20286;-70
2022/06/26 00:19:45;;;;;;;3.03;2.92;;;;;;;;;;5060613;28;20203;-71
2022/06/26 00:22:33;;;;;;;3.08;2.97;;;;;;;;;;5059131;28;20255;-70
2022/06/26 00:25:20;;;;;;;3.20;3.00;;;;;;;;;;5062166;28;20219;-70
2022/06/26 00:28:07;;;;;;;2.80;2.70;;;;;;;;;;5058090;28;20216;-70
2022/06/26 00:30:54;;;;;;;3.47;3.38;;;;;;;;;;5061677;28;20231;-69
2022/06/26 00:33:41;;;;;;;2.95;2.85;;;;;;;;;;5063924;28;20204;-70
2022/06/26 00:36:29;;;;;;;3.00;2.90;;;;;;;;;;5063011;28;20412;-69
2022/06/26 00:39:17;;;;;;;3.30;3.10;;;;;;;;;;5058000;28;20705;-70
2022/06/26 00:42:05;;;;;;;3.00;2.80;;;;;;;;;;5052134;28;20288;-70
2022/06/26 00:44:55;;;;;;;3.05;2.95;;;;;;;;;;5060398;28;20203;-69
2022/06/26 00:47:42;;;;;;;3.03;2.92;;;;;;;;;;5066069;28;20762;-70
2022/06/26 00:50:29;;;;;;;3.15;3.00;;;;;;;;;;5057168;28;20275;-69
2022/06/26 00:53:16;;;;;;;3.10;2.90;;;;;;;;;;5061431;28;20334;-70
2022/06/26 00:56:05;;;;;;;3.30;3.20;;;;;;;;;;5060561;28;20682;-70
2022/06/26 00:58:52;;;;;;;3.10;3.00;;;;;;;;;;5059345;28;20217;-70
2022/06/26 01:01:39;;;;;;;3.10;3.00;;;;;;;;;;5060621;28;20214;-70
2022/06/26 01:04:26;;;;;;;3.03;2.92;;;;;;;;;;5061316;28;20211;-70
2022/06/26 01:07:14;;;;;;;3.40;3.20;;;;;;;;;;5062545;28;20292;-70
2022/06/26 01:10:02;;;;;;;3.00;2.90;;;;;;;;;;5061782;28;20211;-70
2022/06/26 01:12:51;;;;;;;3.05;2.95;;;;;;;;;;5062518;28;20212;-70
2022/06/26 01:15:39;;;;;;;3.08;2.97;;;;;;;;;;5061738;28;20524;-70
2022/06/26 01:18:26;;;;;;;2.83;2.72;;;;;;;;;;5063926;28;20238;-70
2022/06/26 01:21:14;;;;;;;3.00;2.85;;;;;;;;;;5057033;28;20287;-70
2022/06/26 01:24:03;;;;;;;2.90;2.80;;;;;;;;;;5062296;28;20710;-70
2022/06/26 01:26:50;;;;;;;2.83;2.72;;;;;;;;;;5054564;28;20795;-70
2022/06/26 01:29:37;;;;;;;3.00;2.90;;;;;;;;;;5063728;28;20204;-70
2022/06/26 01:32:25;;;;;;;2.97;2.88;;;;;;;;;;5064034;28;20228;-70
2022/06/26 01:35:12;;;;;;;2.90;2.80;;;;;;;;;;5064698;28;20200;-70
2022/06/26 01:38:11;;;;;;;2.70;2.60;;;;;;;;;;5063783;28;20214;-70
2022/06/26 01:41:00;;;;;;;2.85;2.75;;;;;;;;;;5058286;28;20238;-71
2022/06/26 01:43:47;;;;;;;2.70;2.60;;;;;;;;;;5055452;28;20214;-70
2022/06/26 01:46:36;;;;;;;2.80;2.70;;;;;;;;;;5060513;28;20218;-69
2022/06/26 01:49:25;;;;;;;2.90;2.80;;;;;;;;;;5060478;28;20737;-70
2022/06/26 01:52:12;;;;;;;3.10;2.90;;;;;;;;;;5063502;28;20256;-70
2022/06/26 01:54:59;;;;;;;3.00;2.90;;;;;;;;;;5054796;28;20204;-69
2022/06/26 01:57:48;;;;;;;2.90;2.80;;;;;;;;;;5058728;28;20304;-70
2022/06/26 02:00:37;;;;;;;2.90;2.80;;;;;;;;;;5061321;28;20282;-70
2022/06/26 02:03:25;;;;;;;2.72;2.63;;;;;;;;;;5062350;28;20321;-70
2022/06/26 02:06:12;;;;;;;2.65;2.55;;;;;;;;;;5065625;28;20662;-70
2022/06/26 02:08:59;;;;;;;2.63;2.53;;;;;;;;;;5061894;28;20243;-70
2022/06/26 02:14:51;;;;;;;2.67;2.58;;;;;;;;;;5065523;28;20263;-71
2022/06/26 02:17:38;;;;;;;2.60;2.45;;;;;;;;;;5061460;28;20287;-69
2022/06/26 02:20:26;;;;;;;2.80;2.70;;;;;;;;;;5055774;28;20622;-71
2022/06/26 02:23:14;;;;;;;2.70;2.60;;;;;;;;;;5059965;28;20207;-70
2022/06/26 02:26:01;;;;;;;2.55;2.45;;;;;;;;;;5059809;28;20667;-70
2022/06/26 02:28:49;;;;;;;2.80;2.70;;;;;;;;;;5052290;28;20242;-70
2022/06/26 02:31:38;;;;;;;2.50;2.40;;;;;;;;;;5062118;28;20337;-70
2022/06/26 02:34:25;;;;;;;2.92;2.72;;;;;;;;;;5055346;28;20222;-70
2022/06/26 02:37:12;;;;;;;3.10;3.00;;;;;;;;;;5059919;28;20203;-70
2022/06/26 02:39:59;;;;;;;2.78;2.67;;;;;;;;;;5053592;28;20218;-70
2022/06/26 02:42:46;;;;;;;2.92;2.83;;;;;;;;;;5054486;28;20204;-70
2022/06/26 02:45:33;;;;;;;2.75;2.50;;;;;;;;;;5060327;28;20203;-70
2022/06/26 02:48:22;;;;;;;2.63;2.53;;;;;;;;;;5062967;28;20205;-70
2022/06/26 02:51:10;;;;;;;2.83;2.70;;;;;;;;;;5060112;28;20261;-69
2022/06/26 02:53:56;;;;;;;2.70;2.60;;;;;;;;;;5051509;28;20214;-70
2022/06/26 02:56:43;;;;;;;2.50;2.40;;;;;;;;;;5058569;28;20238;-69
2022/06/26 02:59:30;;;;;;;2.60;2.50;;;;;;;;;;5062060;28;20257;-69
2022/06/26 03:02:17;;;;;;;2.92;2.80;;;;;;;;;;5057006;28;20218;-70
2022/06/26 03:05:07;;;;;;;2.70;2.60;;;;;;;;;;5056878;28;20199;-70
2022/06/26 03:07:56;;;;;;;2.70;2.60;;;;;;;;;;5057501;28;20730;-69
2022/06/26 03:10:43;;;;;;;2.75;2.55;;;;;;;;;;5059722;28;20215;-70
2022/06/26 03:13:29;;;;;;;2.53;2.42;;;;;;;;;;5058147;28;20693;-70
2022/06/26 03:16:16;;;;;;;2.70;2.60;;;;;;;;;;5056974;28;20206;-70
2022/06/26 03:19:04;;;;;;;2.75;2.65;;;;;;;;;;5058265;28;20219;-71
2022/06/26 03:21:52;;;;;;;2.60;2.50;;;;;;;;;;5054719;28;20761;-70
2022/06/26 03:24:39;;;;;;;2.50;2.40;;;;;;;;;;5056692;28;20273;-70
2022/06/26 03:27:26;;;;;;;2.70;2.60;;;;;;;;;;5061230;28;20651;-69
2022/06/26 03:30:14;;;;;;;3.17;2.97;;;;;;;;;;5058504;28;20249;-70
2022/06/26 03:33:01;;;;;;;2.50;2.40;;;;;;;;;;5055950;28;20276;-70
2022/06/26 03:35:48;;;;;;;3.10;2.90;;;;;;;;;;5059394;28;20232;-70
2022/06/26 03:38:36;;;;;;;2.90;2.80;;;;;;;;;;5053750;28;20215;-70
2022/06/26 03:41:23;;;;;;;2.30;2.17;;;;;;;;;;5063661;28;20216;-70
2022/06/26 03:44:10;;;;;;;2.65;2.55;;;;;;;;;;5057332;28;20207;-70
2022/06/26 03:46:58;;;;;;;2.65;2.55;;;;;;;;;;5064154;28;20210;-70
2022/06/26 03:49:45;;;;;;;2.58;2.47;;;;;;;;;;5059802;28;20250;-70
2022/06/26 03:52:32;;;;;;;2.60;2.47;;;;;;;;;;5059849;28;20234;-70
2022/06/26 03:55:20;;;;;;;2.45;2.35;;;;;;;;;;5057703;28;20203;-70
2022/06/26 03:58:07;;;;;;;2.38;2.28;;;;;;;;;;5056505;28;20217;-70
2022/06/26 04:00:55;;;;;;;2.63;2.53;;;;;;;;;;5058694;28;20214;-70
2022/06/26 04:03:42;;;;;;;2.53;2.42;;;;;;;;;;5048258;28;20220;-70
2022/06/26 04:06:29;;;;;;;2.70;2.50;;;;;;;;;;5055944;28;20292;-70
2022/06/26 04:09:16;;;;;;;2.67;2.58;;;;;;;;;;5058058;28;20763;-69
2022/06/26 04:12:05;;;;;;;2.90;2.80;;;;;;;;;;5060644;28;20222;-69
2022/06/26 04:14:52;;;;;;;2.58;2.47;;;;;;;;;;5057800;28;20286;-69
2022/06/26 04:17:40;;;;;;;2.70;2.50;;;;;;;;;;5058019;28;20338;-70
2022/06/26 04:20:27;;;;;;;2.42;2.33;;;;;;;;;;5059635;28;20573;-70
2022/06/26 04:23:14;;;;;;;2.65;2.55;;;;;;;;;;5055971;28;20226;-70
2022/06/26 04:26:01;;;;;;;2.80;2.70;;;;;;;;;;5058251;28;20208;-70
2022/06/26 04:28:50;;;;;;;2.80;2.70;;;;;;;;;;5063384;28;20203;-70
2022/06/26 04:31:37;;;;;;;2.63;2.53;;;;;;;;;;5060055;28;20241;-70
2022/06/26 04:34:24;;;;;;;2.78;2.67;;;;;;;;;;5066494;28;20204;-70
2022/06/26 04:37:12;;;;;;;2.70;2.60;;;;;;;;;;5060517;28;20209;-70
2022/06/26 04:39:59;;;;;;;2.90;2.80;;;;;;;;;;5061955;28;20199;-69
2022/06/26 04:42:46;;;;;;;2.60;2.50;;;;;;;;;;5064872;28;20241;-69
2022/06/26 04:45:34;;;;;;;2.60;2.50;;;;;;;;;;5066351;28;20287;-70
2022/06/26 04:48:22;;;;;;;3.17;2.60;;;;;;;;;;5064591;28;20299;-70
2022/06/26 04:51:09;;;;;;;2.85;2.63;;;;;;;;;;5057774;28;20652;-70
2022/06/26 04:53:55;;;;;;;2.63;2.42;;;;;;;;;;5062028;28;20199;-70
2022/06/26 04:56:42;;;;;;;2.80;2.70;;;;;;;;;;5060215;28;20713;-70
2022/06/26 04:59:29;;;;;;;2.60;2.50;;;;;;;;;;5058360;28;20262;-70
2022/06/26 05:02:18;;;;;;;2.47;2.38;;;;;;;;;;5062540;28;20230;-69
2022/06/26 05:05:06;;;;;;;2.42;2.33;;;;;;;;;;5061100;28;20199;-70
2022/06/26 05:07:53;;;;;;;2.58;2.47;;;;;;;;;;5058174;28;20243;-70
2022/06/26 05:10:40;;;;;;;2.60;2.50;;;;;;;;;;5057832;28;20295;-70
2022/06/26 05:13:27;;;;;;;2.78;2.67;;;;;;;;;;5053374;28;20321;-70
2022/06/26 05:16:14;;;;;;;2.42;2.33;;;;;;;;;;5061773;28;20251;-69
2022/06/26 05:19:03;;;;;;;2.72;2.63;;;;;;;;;;5063372;28;20199;-69
2022/06/26 05:21:52;;;;;;;2.70;2.60;;;;;;;;;;5064221;28;20249;-70
2022/06/26 05:24:39;;;;;;;2.55;2.45;;;;;;;;;;5067326;28;20207;-70
2022/06/26 05:27:28;;;;;;;2.67;2.58;;;;;;;;;;5058885;28;20333;-70
2022/06/26 05:30:15;;;;;;;2.55;2.45;;;;;;;;;;5057145;28;20564;-70
2022/06/26 05:33:03;;;;;;;2.60;2.50;;;;;;;;;;5059995;28;20234;-70
2022/06/26 05:35:51;;;;;;;2.53;2.42;;;;;;;;;;5054894;28;20207;-69
2022/06/26 05:38:39;;;;;;;2.40;2.30;;;;;;;;;;5058629;28;20192;-70
2022/06/26 05:41:28;;;;;;;2.60;2.50;;;;;;;;;;5054802;28;20304;-70
2022/06/26 05:44:17;;;;;;;2.95;2.28;;;;;;;;;;5062430;28;21169;-69
2022/06/26 05:47:05;;;;;;;2.67;2.58;;;;;;;;;;5064068;28;20680;-69
2022/06/26 05:49:51;;;;;;;2.30;2.20;;;;;;;;;;5063421;28;20207;-69
2022/06/26 05:52:40;;;;;;;2.33;2.22;;;;;;;;;;5060019;28;20714;-70
2022/06/26 05:55:27;;;;;;;2.60;2.50;;;;;;;;;;5061226;28;20207;-69
2022/06/26 05:58:15;;;;;;;2.60;2.50;;;;;;;;;;5055535;28;20265;-70
2022/06/26 06:01:02;;;;;;;2.40;2.30;;;;;;;;;;5060914;28;20299;-69
2022/06/26 06:03:49;;;;;;;2.60;2.50;;;;;;;;;;5058567;28;20261;-70
2022/06/26 06:06:36;;;;;;;2.47;2.38;;;;;;;;;;5059025;28;20211;-70
2022/06/26 06:09:24;;;;;;;2.42;2.33;;;;;;;;;;5060965;28;20761;-70
2022/06/26 06:12:13;;;;;;;2.67;2.58;;;;;;;;;;5058841;28;20221;-70
2022/06/26 06:15:00;;;;;;;2.67;2.58;;;;;;;;;;5057806;28;20265;-70
2022/06/26 06:17:48;;;;;;;2.15;2.13;;;;;;;;;;5054671;28;20200;-70
2022/06/26 06:20:38;;;;;;;2.70;2.60;;;;;;;;;;5054083;28;20204;-70
2022/06/26 06:23:25;;;;;;;2.60;2.50;;;;;;;;;;5060544;28;20360;-70
2022/06/26 06:26:14;;;;;;;2.60;2.50;;;;;;;;;;5059723;28;20204;-70
2022/06/26 06:29:01;;;;;;;2.55;2.45;;;;;;;;;;5057604;28;20210;-69
2022/06/26 06:31:48;;;;;;;2.50;2.40;;;;;;;;;;5060413;28;20215;-70
2022/06/26 06:34:35;;;;;;;2.80;2.70;;;;;;;;;;5058508;28;20397;-70
2022/06/26 06:37:23;;;;;;;2.42;2.33;;;;;;;;;;5060062;28;20207;-70
2022/06/26 06:40:12;;;;;;;2.60;2.50;;;;;;;;;;5055398;28;20214;-70
2022/06/26 06:43:01;;;;;;;2.40;2.30;;;;;;;;;;5062571;28;20203;-69
2022/06/26 06:45:47;;;;;;;2.47;2.38;;;;;;;;;;5053179;28;20306;-69
2022/06/26 06:48:34;;;;;;;2.50;2.40;;;;;;;;;;5053628;28;20275;-70
2022/06/26 06:51:21;;;;;;;2.20;2.20;;;;;;;;;;5053457;28;20200;-69
2022/06/26 06:54:08;;;;;;;2.35;2.25;;;;;;;;;;5055448;28;20223;-70
2022/06/26 06:56:55;;;;;;;2.53;2.42;;;;;;;;;;5054523;28;20738;-70
2022/06/26 06:59:44;;;;;;;2.38;2.38;;;;;;;;;;5054224;28;20208;-69
2022/06/26 07:02:31;;;;;;;2.47;2.28;;;;;;;;;;5060071;28;20223;-71
2022/06/26 07:05:19;;;;;;;2.40;2.30;;;;;;;;;;5055366;28;20199;-70
2022/06/26 07:08:06;;;;;;;2.20;2.20;;;;;;;;;;5053587;28;20328;-71
2022/06/26 07:10:53;;;;;;;2.40;2.30;;;;;;;;;;5057457;28;20207;-71
2022/06/26 07:13:40;;;;;;;2.22;2.13;;;;;;;;;;5051821;28;20228;-70
2022/06/26 07:16:29;;;;;;;2.30;2.20;;;;;;;;;;5054028;28;20210;-70
2022/06/26 07:19:16;;;;;;;2.20;2.13;;;;;;;;;;5058965;28;20211;-71
2022/06/26 07:22:03;;;;;;;2.10;2.10;;;;;;;;;;5055367;28;20207;-71
2022/06/26 07:24:50;;;;;;;2.00;2.00;;;;;;;;;;5054184;28;20214;-71
2022/06/26 07:27:37;;;;;;;2.22;2.13;;;;;;;;;;5055734;28;20203;-71
2022/06/26 07:30:24;;;;;;;2.03;1.90;;;;;;;;;;5053484;28;20198;-71
2022/06/26 07:36:14;;;;;;;2.47;2.35;;;;;;;;;;5058695;28;20260;-71
2022/06/26 07:39:01;;;;;;;2.30;2.20;;;;;;;;;;5055958;28;20208;-71
2022/06/26 07:41:49;;;;;;;2.00;2.00;;;;;;;;;;5050862;28;20204;-71
2022/06/26 07:44:36;;;;;;;2.10;2.00;;;;;;;;;;5056413;28;20224;-71
2022/06/26 07:47:23;;;;;;;2.15;2.15;;;;;;;;;;5053796;28;20202;-71
2022/06/26 07:50:12;;;;;;;2.03;2.03;;;;;;;;;;5055200;28;20208;-71
2022/06/26 07:52:58;;;;;;;2.10;2.00;;;;;;;;;;5060104;28;20306;-71
2022/06/26 07:55:45;;;;;;;2.03;2.03;;;;;;;;;;5051448;28;20287;-71
2022/06/26 07:58:32;;;;;;;2.42;2.33;;;;;;;;;;5054110;28;20202;-71
2022/06/26 08:01:19;;;;;;;2.30;2.20;;;;;;;;;;5066130;28;20289;-71
2022/06/26 08:04:07;;;;;;;2.20;2.10;;;;;;;;;;5062545;28;20227;-71
2022/06/26 08:06:55;;;;;;;2.55;2.45;;;;;;;;;;5059942;28;20695;-70
2022/06/26 08:09:42;;;;;;;2.28;2.17;;;;;;;;;;5059072;28;20571;-70
2022/06/26 08:12:29;;;;;;;2.35;2.25;;;;;;;;;;5061683;28;20211;-71
2022/06/26 08:15:16;;;;;;;2.30;2.20;;;;;;;;;;5062269;28;20196;-71
2022/06/26 08:18:04;;;;;;;2.10;2.00;;;;;;;;;;5064884;28;20207;-70
2022/06/26 08:20:51;;;;;;;2.50;2.40;;;;;;;;;;5059786;28;20215;-70
2022/06/26 08:23:39;;;;;;;1.92;1.92;;;;;;;;;;5062344;28;20249;-71
2022/06/26 08:26:26;;;;;;;2.25;2.15;;;;;;;;;;5065313;28;20207;-70
2022/06/26 08:29:13;;;;;;;2.40;2.30;;;;;;;;;;5059582;28;20204;-71
2022/06/26 08:32:00;;;;;;;2.03;2.03;;;;;;;;;;5065138;28;20202;-71
2022/06/26 08:34:47;;;;;;;2.28;2.17;;;;;;;;;;5066837;28;20223;-70
2022/06/26 08:37:34;;;;;;;2.30;2.20;;;;;;;;;;5062248;28;20212;-70
2022/06/26 08:40:24;;;;;;;2.15;2.05;;;;;;;;;;5060124;28;20258;-70
2022/06/26 08:43:13;;;;;;;2.17;2.17;;;;;;;;;;5064401;28;20196;-70
2022/06/26 08:46:05;;;;;;;2.33;2.22;;;;;;;;;;5066033;28;20215;-70
2022/06/26 08:48:53;;;;;;;2.30;2.20;;;;;;;;;;5061209;28;20266;-70
2022/06/26 08:51:42;;;;;;;2.05;1.95;;;;;;;;;;5060621;28;20585;-71
2022/06/26 08:54:30;;;;;;;2.17;2.10;;;;;;;;;;5063953;28;20276;-71
2022/06/26 08:57:18;;;;;;;2.20;2.10;;;;;;;;;;5059506;28;20294;-70
2022/06/26 09:00:07;;;;;;;2.13;2.10;;;;;;;;;;5065552;28;20204;-70
2022/06/26 09:02:54;;;;;;;2.20;2.10;;;;;;;;;;5060737;28;20253;-70
2022/06/26 09:05:41;;;;;;;1.95;1.90;;;;;;;;;;5058860;28;20210;-70
2022/06/26 09:08:29;;;;;;;2.25;2.15;;;;;;;;;;5053995;28;20319;-70
2022/06/26 09:11:16;;;;;;;2.00;2.00;;;;;;;;;;5063058;28;20211;-71
2022/06/26 09:14:05;;;;;;;1.77;1.77;;;;;;;;;;5057317;28;20219;-71
2022/06/26 09:16:52;;;;;;;2.22;2.13;;;;;;;;;;5060837;28;20210;-70
2022/06/26 09:19:43;;;;;;;2.00;2.00;;;;;;;;;;5057476;28;20215;-71
2022/06/26 09:22:30;;;;;;;2.20;2.10;;;;;;;;;;5062760;28;20660;-71
2022/06/26 09:25:17;;;;;;;2.30;2.20;;;;;;;;;;5059029;28;20204;-71
2022/06/26 09:28:09;;;;;;;2.05;2.00;;;;;;;;;;5056365;28;20250;-71
2022/06/26 09:30:59;;;;;;;2.17;2.08;;;;;;;;;;5060360;28;20337;-71
2022/06/26 09:33:46;;;;;;;2.10;2.10;;;;;;;;;;5061721;28;20263;-71
2022/06/26 09:36:33;;;;;;;2.00;2.00;;;;;;;;;;5063438;28;20685;-71
2022/06/26 09:39:20;;;;;;;1.95;1.95;;;;;;;;;;5061556;28;20609;-70
2022/06/26 09:42:17;;;;;;;2.17;2.08;;;;;;;;;;5058160;28;20207;-71
2022/06/26 09:45:09;;;;;;;2.22;2.13;;;;;;;;;;5058604;28;20206;-71
2022/06/26 09:47:59;;;;;;;2.30;2.20;;;;;;;;;;5058459;28;20291;-70
2022/06/26 09:50:47;;;;;;;2.38;2.28;;;;;;;;;;5056039;28;20212;-71
2022/06/26 09:53:34;;;;;;;2.10;2.00;;;;;;;;;;5058314;28;20674;-71
2022/06/26 09:56:23;;;;;;;2.40;2.30;;;;;;;;;;5058318;28;20661;-70
2022/06/26 09:59:11;;;;;;;2.05;1.98;;;;;;;;;;5058313;28;20610;-71
2022/06/26 10:08:14;;;;;;;2.17;2.05;;;;;;;;;;5057738;28;20231;-70
2022/06/26 10:11:03;;;;;;;2.20;2.20;;;;;;;;;;5064620;28;20203;-70
2022/06/26 10:13:51;;;;;;;2.00;1.90;;;;;;;;;;5058653;28;20231;-71
2022/06/26 10:17:01;;;;;;;1.90;1.90;;;;;;;;;;5061626;28;20227;-70
2022/06/26 10:19:53;;;;;;;2.22;2.13;;;;;;;;;;5062426;28;20295;-71
2022/06/26 10:22:43;;;;;;;1.95;1.85;;;;;;;;;;5058949;28;20245;-71
2022/06/26 10:25:32;;;;;;;2.10;2.00;;;;;;;;;;5056742;28;20204;-70
2022/06/26 10:28:19;;;;;;;2.05;1.95;;;;;;;;;;5056644;28;20208;-73
2022/06/26 10:31:09;;;;;;;2.20;2.10;;;;;;;;;;5056641;28;20214;-74
2022/06/26 10:33:56;;;;;;;2.10;2.10;;;;;;;;;;5061336;28;20277;-74
2022/06/26 10:36:43;;;;;;;2.10;2.10;;;;;;;;;;5058349;28;20208;-74
2022/06/26 10:39:46;;;;;;;2.20;2.10;;;;;;;;;;5053736;28;20203;-74
2022/06/26 10:45:39;;;;;;;2.28;2.17;;;;;;;;;;5059667;28;20207;-74
2022/06/26 10:48:26;;;;;;;2.30;2.20;;;;;;;;;;5060245;28;20663;-74
2022/06/26 10:51:24;;;;;;;2.20;2.20;;;;;;;;;;5057130;28;20199;-74
2022/06/26 10:54:19;;;;;;;1.95;1.95;;;;;;;;;;5054466;28;20223;-74
2022/06/26 10:57:15;;;;;;;2.30;2.20;;;;;;;;;;5058075;28;20200;-74
2022/06/26 11:00:05;;;;;;;2.13;2.13;;;;;;;;;;5056165;28;20208;-74
2022/06/26 11:02:52;;;;;;;1.85;1.85;;;;;;;;;;5058578;28;20246;-74
2022/06/26 11:05:39;;;;;;;2.30;2.22;;;;;;;;;;5057368;28;20286;-74
2022/06/26 11:08:30;;;;;;;2.05;1.95;;;;;;;;;;5058702;28;20255;-74
2022/06/26 11:11:20;;;;;;;2.60;2.50;;;;;;;;;;5058864;28;20207;-73
2022/06/26 11:14:09;;;;;;;2.50;2.40;;;;;;;;;;5060844;28;20278;-74
2022/06/26 11:16:56;;;;;;;2.22;2.13;;;;;;;;;;5059836;28;20912;-74
2022/06/26 11:22:45;;;;;;;2.40;2.30;;;;;;;;;;5064515;28;20261;-74
2022/06/26 11:25:32;;;;;;;2.28;2.17;;;;;;;;;;5058206;28;20730;-74
2022/06/26 11:28:19;;;;;;;2.40;2.30;;;;;;;;;;5061095;28;20207;-74
2022/06/26 11:31:09;;;;;;;2.30;2.20;;;;;;;;;;5056972;28;20215;-74
2022/06/26 11:34:07;;;;;;;2.20;2.10;;;;;;;;;;5062136;28;20725;-74
2022/06/26 11:36:55;;;;;;;2.60;2.50;;;;;;;;;;5058236;28;20203;-74
2022/06/26 11:39:43;;;;;;;2.45;2.35;;;;;;;;;;5056875;28;20215;-73
2022/06/26 11:42:30;;;;;;;2.28;2.17;;;;;;;;;;5063295;28;20584;-73
2022/06/26 11:45:21;;;;;;;2.38;2.28;;;;;;;;;;5054104;28;20668;-73
2022/06/26 11:48:13;;;;;;;2.60;2.50;;;;;;;;;;5059144;28;20698;-74
2022/06/26 11:51:00;;;;;;;2.50;2.40;;;;;;;;;;5056010;28;20204;-73
2022/06/26 11:53:48;;;;;;;2.55;2.45;;;;;;;;;;5060487;28;20702;-74
2022/06/26 11:56:35;;;;;;;2.40;2.30;;;;;;;;;;5059536;28;20243;-74
2022/06/26 11:59:22;;;;;;;2.40;2.30;;;;;;;;;;5057043;28;21699;-74
2022/06/26 12:02:18;;;;;;;2.50;2.40;;;;;;;;;;5054835;28;20704;-74
2022/06/26 12:05:07;;;;;;;2.70;2.60;;;;;;;;;;5056074;28;20288;-74
2022/06/26 12:07:55;;;;;;;2.80;2.70;;;;;;;;;;5052230;28;20579;-74
2022/06/26 12:10:43;;;;;;;2.72;2.63;;;;;;;;;;5053817;28;20207;-73
2022/06/26 12:13:32;;;;;;;2.65;2.55;;;;;;;;;;5051220;28;20295;-74
2022/06/26 12:16:19;;;;;;;2.40;2.30;;;;;;;;;;5052284;28;20279;-74
2022/06/26 12:19:06;;;;;;;2.45;2.35;;;;;;;;;;5055873;28;20274;-74
2022/06/26 12:21:56;;;;;;;2.40;2.30;;;;;;;;;;5058004;28;20211;-74
2022/06/26 12:24:50;;;;;;;2.50;2.40;;;;;;;;;;5051435;28;20565;-74
2022/06/26 12:27:39;;;;;;;2.55;2.45;;;;;;;;;;5058728;28;20711;-73
2022/06/26 12:30:28;;;;;;;2.50;2.40;;;;;;;;;;5054243;28;20249;-74
2022/06/26 12:33:15;;;;;;;2.67;2.58;;;;;;;;;;5055004;28;20208;-74
2022/06/26 12:36:02;;;;;;;2.63;2.53;;;;;;;;;;5053573;28;20728;-74
2022/06/26 12:38:50;;;;;;;2.47;2.38;;;;;;;;;;5058353;28;20242;-73
2022/06/26 12:41:37;;;;;;;2.60;2.50;;;;;;;;;;5058791;28;20336;-73
2022/06/26 12:44:24;;;;;;;2.45;2.35;;;;;;;;;;5053103;28;20288;-74
2022/06/26 12:47:11;;;;;;;2.33;2.22;;;;;;;;;;5060997;28;20691;-74
2022/06/26 12:49:58;;;;;;;2.80;2.60;;;;;;;;;;5062284;28;20809;-74
2022/06/26 12:52:45;;;;;;;2.63;2.53;;;;;;;;;;5059026;28;20213;-74
2022/06/26 12:55:34;;;;;;;2.63;2.53;;;;;;;;;;5058714;28;20274;-74
2022/06/26 12:58:21;;;;;;;2.88;2.60;;;;;;;;;;5054483;28;20202;-74
2022/06/26 13:01:08;;;;;;;2.50;2.40;;;;;;;;;;5066753;28;20207;-74
2022/06/26 13:03:55;;;;;;;2.70;2.60;;;;;;;;;;5062147;28;20252;-74
2022/06/26 13:06:42;;;;;;;2.67;2.58;;;;;;;;;;5063867;28;20309;-74
2022/06/26 13:09:30;;;;;;;2.70;2.50;;;;;;;;;;5061347;28;20607;-74
2022/06/26 13:12:19;;;;;;;2.90;2.80;;;;;;;;;;5058310;28;20200;-74
2022/06/26 13:15:07;;;;;;;2.75;2.65;;;;;;;;;;5060380;28;20228;-74
2022/06/26 13:17:54;;;;;;;2.70;2.55;;;;;;;;;;5061995;28;20204;-73
2022/06/26 13:20:41;;;;;;;2.47;2.38;;;;;;;;;;5056719;28;20207;-74
2022/06/26 13:23:28;;;;;;;2.90;2.80;;;;;;;;;;5054152;28;20215;-74
2022/06/26 13:26:15;;;;;;;2.70;2.60;;;;;;;;;;5057691;28;20204;-73
2022/06/26 13:29:04;;;;;;;3.03;2.83;;;;;;;;;;5053391;28;20251;-73
2022/06/26 13:31:52;;;;;;;3.28;3.08;;;;;;;;;;5052471;28;20208;-74
2022/06/26 13:34:39;;;;;;;3.03;2.92;;;;;;;;;;5056264;28;20230;-74
2022/06/26 13:37:26;;;;;;;2.80;2.70;;;;;;;;;;5055249;28;20797;-73
2022/06/26 13:40:13;;;;;;;2.78;2.67;;;;;;;;;;5058586;28;20219;-73
2022/06/26 13:43:00;;;;;;;2.78;2.60;;;;;;;;;;5057429;28;20297;-73
2022/06/26 13:45:48;;;;;;;2.90;2.80;;;;;;;;;;5059587;28;20316;-71
2022/06/26 13:48:35;;;;;;;2.85;2.75;;;;;;;;;;5063521;28;20227;-70
2022/06/26 13:51:23;;;;;;;3.03;2.70;;;;;;;;;;5056493;28;20207;-71
2022/06/26 13:54:10;;;;;;;2.72;2.63;;;;;;;;;;5063795;28;20208;-71
2022/06/26 13:56:57;;;;;;;4.07;2.50;;;;;;;;;;5062237;28;20207;-71
2022/06/26 13:59:43;;;;;;;2.80;2.70;;;;;;;;;;5058445;28;20257;-71
2022/06/26 14:02:32;;;;;;;3.13;2.97;;;;;;;;;;5061316;28;20223;-70
2022/06/26 14:05:21;;;;;;;2.78;2.63;;;;;;;;;;5060484;28;20195;-70
2022/06/26 14:08:10;;;;;;;2.80;2.70;;;;;;;;;;5065327;28;20322;-70
2022/06/26 14:10:58;;;;;;;2.60;2.50;;;;;;;;;;5058780;28;20208;-70
2022/06/26 14:13:45;;;;;;;2.80;2.70;;;;;;;;;;5064056;28;20553;-70
2022/06/26 14:16:33;;;;;;;2.70;2.50;;;;;;;;;;5057002;28;20291;-70
2022/06/26 14:19:22;;;;;;;2.90;2.70;;;;;;;;;;5058432;28;20200;-71
2022/06/26 14:28:19;;;;;;;2.90;2.80;;;;;;;;;;5058385;28;20210;-74
2022/06/26 14:31:07;;;;;;;2.80;2.70;;;;;;;;;;5061207;28;20233;-74
2022/06/26 14:33:54;;;;;;;2.80;2.70;;;;;;;;;;5053681;28;20204;-73
2022/06/26 14:36:43;;;;;;;2.78;2.67;;;;;;;;;;5060742;28;20269;-74
2022/06/26 14:39:30;;;;;;;2.88;2.72;;;;;;;;;;5059180;28;20594;-74
2022/06/26 14:42:17;;;;;;;2.92;2.72;;;;;;;;;;5058452;28;20211;-74
2022/06/26 14:45:04;;;;;;;2.70;2.60;;;;;;;;;;5059830;28;20695;-74
2022/06/26 14:47:51;;;;;;;2.70;2.60;;;;;;;;;;5053683;28;20208;-73
2022/06/26 14:50:38;;;;;;;2.95;2.85;;;;;;;;;;5054430;28;20215;-74
2022/06/26 14:53:27;;;;;;;2.70;2.60;;;;;;;;;;5052663;28;20247;-74
2022/06/26 14:56:14;;;;;;;2.95;2.85;;;;;;;;;;5057706;28;20223;-73
2022/06/26 14:59:01;;;;;;;2.58;2.47;;;;;;;;;;5056811;28;20215;-74
2022/06/26 15:01:48;;;;;;;2.50;2.40;;;;;;;;;;5061079;28;20638;-74
2022/06/26 15:04:35;;;;;;;3.20;3.10;;;;;;;;;;5062990;28;21007;-74
2022/06/26 15:07:22;;;;;;;2.72;2.63;;;;;;;;;;5057997;28;20244;-74
2022/06/26 15:10:12;;;;;;;3.10;2.90;;;;;;;;;;5060301;28;20386;-74
2022/06/26 15:12:59;;;;;;;2.80;2.60;;;;;;;;;;5053524;28;20245;-73
2022/06/26 15:15:46;;;;;;;2.85;2.75;;;;;;;;;;5060407;28;20268;-74
2022/06/26 15:18:33;;;;;;;2.75;2.65;;;;;;;;;;5061972;28;20215;-74
2022/06/26 15:21:20;;;;;;;3.08;2.97;;;;;;;;;;5061038;28;20215;-73
2022/06/26 15:24:07;;;;;;;2.67;2.58;;;;;;;;;;5058405;28;20651;-73
2022/06/26 15:26:56;;;;;;;3.30;3.00;;;;;;;;;;5052913;28;20207;-73
2022/06/26 15:29:43;;;;;;;2.75;2.65;;;;;;;;;;5056935;28;20214;-74
2022/06/26 15:32:32;;;;;;;3.22;3.13;;;;;;;;;;5056226;28;20313;-73
2022/06/26 15:35:18;;;;;;;2.70;2.60;;;;;;;;;;5055304;28;20215;-74
2022/06/26 15:38:06;;;;;;;2.95;2.85;;;;;;;;;;5053471;28;20663;-74
2022/06/26 15:40:52;;;;;;;2.85;2.75;;;;;;;;;;5059102;28;20213;-74
2022/06/26 15:43:41;;;;;;;2.92;2.83;;;;;;;;;;5053176;28;20741;-74
2022/06/26 15:46:28;;;;;;;3.10;3.00;;;;;;;;;;5056652;28;20233;-73
2022/06/26 15:49:15;;;;;;;2.70;2.60;;;;;;;;;;5060031;28;20202;-74
2022/06/26 15:52:02;;;;;;;2.88;2.78;;;;;;;;;;5053033;28;20208;-73
2022/06/26 15:54:49;;;;;;;2.55;2.45;;;;;;;;;;5058709;28;20211;-74
2022/06/26 15:57:36;;;;;;;2.88;2.78;;;;;;;;;;5062820;28;20239;-74
2022/06/26 16:00:24;;;;;;;2.80;2.70;;;;;;;;;;5063277;28;20235;-73
2022/06/26 16:03:12;;;;;;;3.00;2.90;;;;;;;;;;5057306;28;20227;-74
2022/06/26 16:05:59;;;;;;;3.00;2.90;;;;;;;;;;5055339;28;20660;-73
2022/06/26 16:08:46;;;;;;;2.80;2.70;;;;;;;;;;5039731;28;20350;-74
2022/06/26 16:11:33;;;;;;;3.00;2.80;;;;;;;;;;5035143;28;20223;-73
2022/06/26 16:14:20;;;;;;;2.90;2.80;;;;;;;;;;5034387;28;21210;-74
2022/06/26 16:17:09;;;;;;;2.88;2.78;;;;;;;;;;5040466;28;20204;-74
2022/06/26 16:19:56;;;;;;;2.67;2.58;;;;;;;;;;5037720;28;20204;-74
2022/06/26 16:28:55;;;;;;;3.13;3.00;;;;;;;;;;5034165;28;20675;-74
2022/06/26 16:31:42;;;;;;;2.88;2.78;;;;;;;;;;5033822;28;20236;-74
2022/06/26 16:34:31;;;;;;;2.95;2.85;;;;;;;;;;5035026;28;20627;-74
2022/06/26 16:37:18;;;;;;;2.78;2.67;;;;;;;;;;5034217;28;20287;-74
2022/06/26 16:40:06;;;;;;;2.63;2.53;;;;;;;;;;5036628;28;20258;-73
2022/06/26 16:42:53;;;;;;;3.03;2.90;;;;;;;;;;5039336;28;20631;-74
2022/06/26 16:45:40;;;;;;;2.63;2.53;;;;;;;;;;5039966;28;20214;-74
2022/06/26 16:48:27;;;;;;;2.83;2.72;;;;;;;;;;5044042;28;20213;-73
2022/06/26 16:51:16;;;;;;;2.60;2.50;;;;;;;;;;5041319;28;20236;-74
2022/06/26 16:54:03;;;;;;;2.55;2.45;;;;;;;;;;5037973;28;20259;-74
2022/06/26 16:56:50;;;;;;;2.90;2.80;;;;;;;;;;5038748;28;20231;-74
2022/06/26 16:59:37;;;;;;;2.80;2.70;;;;;;;;;;5039801;28;20215;-74
2022/06/26 17:02:24;;;;;;;2.80;2.70;;;;;;;;;;5041695;28;20220;-74
2022/06/26 17:05:11;;;;;;;2.92;2.78;;;;;;;;;;5039568;28;20207;-74
2022/06/26 17:07:59;;;;;;;3.10;2.90;;;;;;;;;;5048036;28;20267;-74
2022/06/26 17:10:46;;;;;;;2.80;2.70;;;;;;;;;;5055264;28;20203;-74
2022/06/26 17:13:34;;;;;;;2.75;2.65;;;;;;;;;;5057027;28;20219;-74
2022/06/26 17:16:21;;;;;;;3.15;2.90;;;;;;;;;;5060630;28;20286;-74